createdAt,value
2022-10-04T00:01:28.531Z,101876.44
2022-10-04T00:04:08.775Z,101878.31
2022-10-04T00:06:46.352Z,101876.53
2022-10-04T00:09:18.711Z,101871.34
2022-10-04T00:11:48.744Z,101875.94
2022-10-04T00:14:21.581Z,101862.69
2022-10-04T00:16:50.809Z,101867.31
2022-10-04T00:19:39.137Z,101864.66
2022-10-04T00:22:29.162Z,101868.97
2022-10-04T00:25:19.252Z,101863.50
2022-10-04T00:28:30.077Z,101861.69
2022-10-04T00:31:18.139Z,101866.09
2022-10-04T00:33:48.274Z,101866.97
2022-10-04T00:36:41.375Z,101866.06
2022-10-04T00:39:38.174Z,101864.22
2022-10-04T00:42:20.061Z,101858.84
2022-10-04T00:44:52.342Z,101858.88
2022-10-04T00:47:31.790Z,101857.09
2022-10-04T00:50:08.514Z,101860.66
2022-10-04T00:52:44.483Z,101852.66
2022-10-04T00:55:25.039Z,101850.00
2022-10-04T00:57:59.328Z,101841.19
2022-10-04T01:00:27.864Z,101840.28
2022-10-04T01:03:02.177Z,101835.00
2022-10-04T01:05:35.473Z,101838.56
2022-10-04T01:08:11.070Z,101838.56
2022-10-04T01:10:46.110Z,101853.75
2022-10-04T01:13:17.108Z,101845.81
2022-10-04T01:15:52.321Z,101839.56
2022-10-04T01:18:30.860Z,101829.84
2022-10-04T01:21:04.453Z,101822.72
2022-10-04T01:23:44.313Z,101828.03
2022-10-04T01:26:38.577Z,101839.63
2022-10-04T01:29:11.266Z,101824.47
2022-10-04T01:31:41.834Z,101829.81
2022-10-04T01:34:10.289Z,101823.59
2022-10-04T01:36:38.458Z,101825.34
2022-10-04T01:39:08.281Z,101817.41
2022-10-04T01:41:46.124Z,101817.41
2022-10-04T01:44:22.553Z,101811.22
2022-10-04T01:46:51.538Z,101806.78
2022-10-04T01:49:24.148Z,101815.66
2022-10-04T01:51:57.498Z,101813.06
2022-10-04T01:54:35.008Z,101800.66
2022-10-04T01:57:12.027Z,101797.97
2022-10-04T01:59:46.038Z,101814.00
2022-10-04T02:02:22.316Z,101803.31
2022-10-04T02:04:54.981Z,101792.69
2022-10-04T02:07:24.041Z,101800.75
2022-10-04T02:09:59.542Z,101745.03
2022-10-04T02:12:31.359Z,101784.69
2022-10-04T02:15:02.377Z,101774.97
2022-10-04T02:17:36.025Z,101774.00
2022-10-04T02:20:11.145Z,101778.44
2022-10-04T02:22:39.245Z,101782.00
2022-10-04T02:25:10.328Z,101782.94
2022-10-04T02:27:38.385Z,101786.47
2022-10-04T02:30:08.923Z,101781.19
2022-10-04T02:32:57.154Z,101781.16
2022-10-04T02:35:28.248Z,101763.31
2022-10-04T02:38:04.276Z,101765.13
2022-10-04T02:40:40.717Z,101757.09
2022-10-04T02:43:16.245Z,101757.97
2022-10-04T02:45:50.225Z,101755.31
2022-10-04T02:48:36.958Z,101747.28
2022-10-04T02:51:16.708Z,101749.00
2022-10-04T02:53:52.537Z,101747.25
2022-10-04T02:56:23.679Z,101735.66
2022-10-04T02:58:52.810Z,101737.34
2022-10-04T03:01:27.738Z,101740.03
2022-10-04T03:03:58.131Z,101748.03
2022-10-04T03:06:32.298Z,101751.56
2022-10-04T03:09:03.910Z,101753.34
2022-10-04T03:11:37.657Z,101748.97
2022-10-04T03:14:10.253Z,101742.69
2022-10-04T03:16:42.151Z,101742.69
2022-10-04T03:19:12.027Z,101749.75
2022-10-04T03:21:41.644Z,101736.41
2022-10-04T03:24:17.050Z,101746.28
2022-10-04T03:26:49.119Z,101745.34
2022-10-04T03:29:19.516Z,101738.22
2022-10-04T03:31:49.888Z,101744.38
2022-10-04T03:34:20.189Z,101737.28
2022-10-04T03:36:50.296Z,101728.41
2022-10-04T03:39:25.398Z,101728.44
2022-10-04T03:41:55.151Z,101733.69
2022-10-04T03:44:24.287Z,101740.84
2022-10-04T03:46:52.213Z,101736.41
2022-10-04T03:49:36.881Z,101740.00
2022-10-04T03:52:06.147Z,101732.00
2022-10-04T03:54:35.355Z,101714.34
2022-10-04T03:57:13.425Z,101740.03
2022-10-04T03:59:43.204Z,101732.09
2022-10-04T04:02:19.526Z,101731.16
2022-10-04T04:04:57.205Z,101731.19
2022-10-04T04:07:29.314Z,101730.34
2022-10-04T04:10:03.565Z,101725.03
2022-10-04T04:12:44.245Z,101729.50
2022-10-04T04:15:13.885Z,101727.78
2022-10-04T04:17:44.688Z,101730.53
2022-10-04T04:20:23.249Z,101732.28
2022-10-04T04:22:59.350Z,101735.88
2022-10-04T04:25:29.769Z,101739.38
2022-10-04T04:28:08.783Z,101742.97
2022-10-04T04:30:39.844Z,101743.81
2022-10-04T04:33:24.501Z,101734.03
2022-10-04T04:35:56.529Z,101717.28
2022-10-04T04:38:26.296Z,101729.66
2022-10-04T04:40:55.752Z,101727.88
2022-10-04T04:43:28.824Z,101726.97
2022-10-04T04:46:22.282Z,101712.72
2022-10-04T04:48:48.965Z,101707.38
2022-10-04T04:51:22.210Z,101709.22
2022-10-04T04:53:52.188Z,101699.47
2022-10-04T04:56:23.283Z,101707.38
2022-10-04T04:58:54.995Z,101714.50
2022-10-04T05:01:27.153Z,101713.56
2022-10-04T05:04:03.277Z,101710.88
2022-10-04T05:06:35.137Z,101717.97
2022-10-04T05:09:04.061Z,101716.22
2022-10-04T05:11:34.216Z,101716.16
2022-10-04T05:14:07.677Z,101709.09
2022-10-04T05:16:41.081Z,101708.13
2022-10-04T05:19:15.841Z,101705.47
2022-10-04T05:21:46.518Z,101708.16
2022-10-04T05:24:21.834Z,101701.06
2022-10-04T05:26:51.949Z,101710.00
2022-10-04T05:29:24.064Z,101705.63
2022-10-04T05:32:03.255Z,101695.84
2022-10-04T05:34:36.996Z,101707.50
2022-10-04T05:37:22.451Z,101708.31
2022-10-04T05:40:02.196Z,101705.63
2022-10-04T05:42:38.328Z,101708.31
2022-10-04T05:45:18.425Z,101708.25
2022-10-04T05:47:48.763Z,101714.44
2022-10-04T05:50:20.653Z,101714.34
2022-10-04T05:52:51.864Z,101710.84
2022-10-04T05:55:27.961Z,101718.88
2022-10-04T05:58:26.376Z,101714.41
2022-10-04T06:01:15.390Z,101705.50
2022-10-04T06:04:02.830Z,101711.78
2022-10-04T06:06:40.478Z,101720.72
2022-10-04T06:09:18.043Z,101721.66
2022-10-04T06:11:56.994Z,101712.72
2022-10-04T06:14:48.175Z,101714.50
2022-10-04T06:17:34.242Z,101705.56
2022-10-04T06:20:27.029Z,101705.56
2022-10-04T06:23:00.758Z,101702.91
2022-10-04T06:25:32.605Z,101701.97
2022-10-04T06:28:12.670Z,101705.44
2022-10-04T06:30:58.536Z,101704.47
2022-10-04T06:33:44.446Z,101705.25
2022-10-04T06:36:37.458Z,101703.34
2022-10-04T06:39:33.609Z,101701.38
2022-10-04T06:42:21.103Z,101701.31
2022-10-04T06:45:05.314Z,101701.19
2022-10-04T06:47:50.852Z,101700.19
2022-10-04T06:50:29.144Z,101708.97
2022-10-04T06:53:10.313Z,101699.16
2022-10-04T06:56:03.077Z,101707.81
2022-10-04T06:58:54.079Z,101708.56
2022-10-04T07:01:29.892Z,101704.88
2022-10-04T07:04:08.066Z,101710.03
2022-10-04T07:06:42.174Z,101714.41
2022-10-04T07:09:26.661Z,101716.00
2022-10-04T07:12:00.360Z,101710.53
2022-10-04T07:14:32.765Z,101713.97
2022-10-04T07:17:05.258Z,101705.91
2022-10-04T07:19:40.776Z,101700.53
2022-10-04T07:22:18.606Z,101712.81
2022-10-04T07:25:06.815Z,101718.09
2022-10-04T07:27:42.524Z,101710.88
2022-10-04T07:30:14.893Z,101715.34
2022-10-04T07:32:46.586Z,101714.34
2022-10-04T07:35:32.799Z,101714.34
2022-10-04T07:38:15.924Z,101712.50
2022-10-04T07:41:04.849Z,101712.41
2022-10-04T07:43:35.784Z,101717.69
2022-10-04T07:46:07.284Z,101721.16
2022-10-04T07:48:35.394Z,101720.22
2022-10-04T07:51:14.181Z,101718.34
2022-10-04T07:53:52.122Z,101718.16
2022-10-04T07:56:27.913Z,101717.19
2022-10-04T07:59:07.055Z,101719.81
2022-10-04T08:01:42.201Z,101715.25
2022-10-04T08:04:29.597Z,101714.38
2022-10-04T08:07:01.454Z,101719.47
2022-10-04T08:09:47.800Z,101721.19
2022-10-04T08:12:21.772Z,101727.19
2022-10-04T08:14:55.910Z,101728.78
2022-10-04T08:17:42.725Z,101722.50
2022-10-04T08:20:27.667Z,101716.09
2022-10-04T08:23:07.609Z,101712.34
2022-10-04T08:25:44.496Z,101723.03
2022-10-04T08:28:43.266Z,101712.28
2022-10-04T08:31:26.210Z,101713.81
2022-10-04T08:34:03.749Z,101711.88
2022-10-04T08:36:49.765Z,101710.84
2022-10-04T08:39:35.303Z,101709.88
2022-10-04T08:42:41.839Z,101705.16
2022-10-04T08:45:25.026Z,101712.97
2022-10-04T08:48:24.548Z,101719.00
2022-10-04T08:51:26.144Z,101708.00
2022-10-04T08:54:23.638Z,101710.69
2022-10-04T08:57:03.914Z,101710.44
2022-10-04T09:00:01.701Z,101718.19
2022-10-04T09:02:56.105Z,101712.59
2022-10-04T09:05:43.866Z,101716.16
2022-10-04T09:08:44.213Z,101707.69
2022-10-04T09:11:41.478Z,101705.63
2022-10-04T09:14:31.727Z,101695.66
2022-10-04T09:17:22.061Z,101695.56
2022-10-04T09:20:33.388Z,101697.03
2022-10-04T09:23:00.794Z,101687.97
2022-10-04T09:25:49.994Z,101689.66
2022-10-04T09:28:39.486Z,101675.13
2022-10-04T09:31:23.842Z,101676.47
2022-10-04T09:34:10.299Z,101679.16
2022-10-04T09:37:07.608Z,101680.81
2022-10-04T09:39:52.371Z,101680.44
2022-10-04T09:42:54.452Z,101690.16
2022-10-04T09:45:51.388Z,101686.50
2022-10-04T09:48:30.194Z,101698.91
2022-10-04T09:51:25.398Z,101694.44
2022-10-04T09:54:11.549Z,101698.03
2022-10-04T09:56:55.053Z,101687.19
2022-10-04T09:59:59.304Z,101694.38
2022-10-04T10:02:49.363Z,101692.50
2022-10-04T10:05:33.358Z,101698.84
2022-10-04T10:08:15.311Z,101697.22
2022-10-04T10:11:09.456Z,101697.22
2022-10-04T10:14:04.304Z,101690.28
2022-10-04T10:16:46.319Z,101689.78
2022-10-04T10:19:46.514Z,101688.22
2022-10-04T10:22:31.219Z,101685.84
2022-10-04T10:25:30.760Z,101684.09
2022-10-04T10:28:19.894Z,101669.66
2022-10-04T10:31:08.551Z,101671.91
2022-10-04T10:34:03.285Z,101677.97
2022-10-04T10:36:50.123Z,101663.53
2022-10-04T10:39:43.968Z,101677.53
2022-10-04T10:42:40.468Z,101659.31
2022-10-04T10:45:21.132Z,101665.22
2022-10-04T10:47:56.136Z,101670.88
2022-10-04T10:50:58.493Z,101663.56
2022-10-04T10:53:59.092Z,101660.81
2022-10-04T10:56:49.029Z,101657.09
2022-10-04T10:59:47.505Z,101656.75
2022-10-04T11:02:49.760Z,101662.75
2022-10-04T11:05:58.101Z,101650.03
2022-10-04T11:09:07.675Z,101653.34
2022-10-04T11:11:51.640Z,101655.63
2022-10-04T11:14:47.485Z,101643.53
2022-10-04T11:17:50.169Z,101636.22
2022-10-04T11:20:49.807Z,101636.75
2022-10-04T11:23:58.479Z,101637.56
2022-10-04T11:26:58.329Z,101639.06
2022-10-04T11:29:42.795Z,101639.28
2022-10-04T11:32:47.985Z,101639.72
2022-10-04T11:35:44.894Z,101627.66
2022-10-04T11:38:28.386Z,101626.53
2022-10-04T11:41:13.936Z,101614.63
2022-10-04T11:44:05.097Z,101602.38
2022-10-04T11:46:41.847Z,101611.03
2022-10-04T11:49:29.878Z,101601.84
2022-10-04T11:52:54.687Z,101605.50
2022-10-04T11:56:14.321Z,101596.97
2022-10-04T11:58:55.138Z,101606.56
2022-10-04T12:01:40.733Z,101606.97
2022-10-04T12:04:39.848Z,101587.28
2022-10-04T12:07:34.154Z,101579.97
2022-10-04T12:10:16.976Z,101574.91
2022-10-04T12:13:05.976Z,101569.13
2022-10-04T12:15:53.582Z,101566.75
2022-10-04T12:19:00.736Z,101564.94
2022-10-04T12:22:10.609Z,101565.44
2022-10-04T12:24:59.436Z,101563.06
2022-10-04T12:28:01.370Z,101562.53
2022-10-04T12:30:44.583Z,101556.72
2022-10-04T12:33:19.146Z,101547.00
2022-10-04T12:35:58.362Z,101540.16
2022-10-04T12:38:42.273Z,101540.88
2022-10-04T12:41:25.186Z,101530.28
2022-10-04T12:44:06.160Z,101526.56
2022-10-04T12:46:45.979Z,101528.09
2022-10-04T12:49:25.840Z,101524.09
2022-10-04T12:51:59.856Z,101526.75
2022-10-04T12:54:35.494Z,101520.19
2022-10-04T12:57:20.963Z,101522.69
2022-10-04T13:00:00.929Z,101517.78
2022-10-04T13:03:02.012Z,101521.78
2022-10-04T13:05:38.381Z,101526.63
2022-10-04T13:08:23.453Z,101529.59
2022-10-04T13:11:25.185Z,101543.41
2022-10-04T13:14:19.679Z,101537.84
2022-10-04T13:19:55.518Z,101518.22
2022-10-04T13:22:56.463Z,101514.84
2022-10-04T13:25:37.552Z,101509.72
2022-10-04T13:28:14.249Z,101505.88
2022-10-04T13:30:50.666Z,101508.16
2022-10-04T13:33:30.153Z,101497.47
2022-10-04T13:36:05.276Z,101492.53
2022-10-04T13:38:48.301Z,101485.00
2022-10-04T13:41:28.753Z,101469.78
2022-10-04T13:44:23.592Z,101460.91
2022-10-04T13:47:12.697Z,101435.81
2022-10-04T13:49:58.109Z,101454.16
2022-10-04T13:52:55.989Z,101444.06
2022-10-04T13:55:47.165Z,101448.34
2022-10-04T13:58:29.280Z,101446.22
2022-10-04T14:01:19.217Z,101456.03
2022-10-04T14:03:58.219Z,101464.16
2022-10-04T14:07:05.837Z,101453.34
2022-10-04T14:10:02.112Z,101451.06
2022-10-04T14:13:03.790Z,101437.66
2022-10-04T14:15:50.859Z,101434.00
2022-10-04T14:18:46.217Z,101431.97
2022-10-04T14:21:50.967Z,101419.22
2022-10-04T14:24:53.724Z,101416.28
2022-10-04T14:27:58.477Z,101417.97
2022-10-04T14:30:37.179Z,101421.75
2022-10-04T14:33:37.461Z,101412.16
2022-10-04T14:36:28.224Z,101416.00
2022-10-04T14:39:18.870Z,101418.66
2022-10-04T14:42:07.002Z,101415.94
2022-10-04T14:45:23.069Z,101426.16
2022-10-04T14:48:32.918Z,101420.56
2022-10-04T14:51:34.894Z,101426.22
2022-10-04T14:54:09.701Z,101431.31
2022-10-04T14:56:58.124Z,101430.34
2022-10-04T14:59:53.626Z,101428.94
2022-10-04T15:02:42.731Z,101428.34
2022-10-04T15:05:47.130Z,101420.94
2022-10-04T15:08:54.994Z,101420.09
2022-10-04T15:11:40.465Z,101424.38
2022-10-04T15:14:27.233Z,101420.91
2022-10-04T15:16:58.205Z,101424.66
2022-10-04T15:19:30.567Z,101420.19
2022-10-04T15:22:08.072Z,101419.75
2022-10-04T15:24:54.608Z,101422.44
2022-10-04T15:27:51.535Z,101423.59
2022-10-04T15:30:30.784Z,101440.47
2022-10-04T15:33:19.981Z,101435.84
2022-10-04T15:36:10.861Z,101421.50
2022-10-04T15:38:51.569Z,101412.81
2022-10-04T15:41:25.993Z,101418.63
2022-10-04T15:44:27.618Z,101412.09
2022-10-04T15:47:09.859Z,101404.31
2022-10-04T15:49:52.555Z,101398.28
2022-10-04T15:52:45.204Z,101392.19
2022-10-04T15:55:22.942Z,101389.78
2022-10-04T15:58:25.993Z,101379.66
2022-10-04T16:01:14.029Z,101380.81
2022-10-04T16:03:52.309Z,101378.34
2022-10-04T16:06:24.874Z,101387.59
2022-10-04T16:09:19.294Z,101377.25
2022-10-04T16:12:04.484Z,101373.53
2022-10-04T16:14:58.568Z,101381.16
2022-10-04T16:18:07.724Z,101376.38
2022-10-04T16:21:01.072Z,101379.28
2022-10-04T16:23:32.400Z,101378.75
2022-10-04T16:26:03.403Z,101374.66
2022-10-04T16:29:15.972Z,101374.25
2022-10-04T16:31:51.663Z,101367.38
2022-10-04T16:34:31.725Z,101375.03
2022-10-04T16:37:05.214Z,101376.28
2022-10-04T16:39:54.555Z,101378.22
2022-10-04T16:42:28.163Z,101376.00
2022-10-04T16:45:00.730Z,101363.00
2022-10-04T16:47:32.659Z,101366.84
2022-10-04T16:50:04.973Z,101361.94
2022-10-04T16:52:48.113Z,101362.53
2022-10-04T16:55:33.810Z,101370.91
2022-10-04T16:58:41.515Z,101369.22
2022-10-04T17:01:44.728Z,101362.34
2022-10-04T17:04:35.495Z,101369.56
2022-10-04T17:07:19.822Z,101358.22
2022-10-04T17:09:49.813Z,101353.25
2022-10-04T17:12:25.390Z,101343.81
2022-10-04T17:15:09.140Z,101347.91
2022-10-04T17:17:52.410Z,101352.13
2022-10-04T17:20:30.962Z,101366.56
2022-10-04T17:23:21.693Z,101363.03
2022-10-04T17:25:59.932Z,101374.69
2022-10-04T17:28:30.643Z,101367.72
2022-10-04T17:31:08.919Z,101367.00
2022-10-04T17:33:53.640Z,101364.66
2022-10-04T17:36:38.947Z,101374.22
2022-10-04T17:39:27.318Z,101375.31
2022-10-04T17:42:10.738Z,101382.97
2022-10-04T17:44:55.358Z,101381.31
2022-10-04T17:47:48.462Z,101360.41
2022-10-04T17:50:41.925Z,101365.34
2022-10-04T17:53:33.685Z,101372.13
2022-10-04T17:56:07.454Z,101371.69
2022-10-04T17:58:44.658Z,101363.84
2022-10-04T18:01:16.537Z,101374.00
2022-10-04T18:03:52.126Z,101376.66
2022-10-04T18:06:30.633Z,101370.53
2022-10-04T18:09:03.029Z,101379.59
2022-10-04T18:11:43.568Z,101381.47
2022-10-04T18:14:21.905Z,101385.16
2022-10-04T18:16:55.450Z,101384.34
2022-10-04T18:19:37.070Z,101390.63
2022-10-04T18:22:14.958Z,101384.25
2022-10-04T18:24:44.737Z,101382.47
2022-10-04T18:27:21.074Z,101375.44
2022-10-04T18:30:03.231Z,101376.56
2022-10-04T18:32:36.702Z,101358.81
2022-10-04T18:35:24.997Z,101360.88
2022-10-04T18:37:53.917Z,101364.72
2022-10-04T18:40:24.533Z,101356.88
2022-10-04T18:42:57.114Z,101353.25
2022-10-04T18:45:28.309Z,101344.25
2022-10-04T18:47:57.922Z,101333.66
2022-10-04T18:50:36.315Z,101322.69
2022-10-04T18:53:19.609Z,101328.06
2022-10-04T18:55:57.900Z,101332.47
2022-10-04T18:58:55.276Z,101336.09
2022-10-04T19:01:59.580Z,101345.94
2022-10-04T19:04:36.169Z,101358.41
2022-10-04T19:07:10.750Z,101362.78
2022-10-04T19:09:53.270Z,101369.84
2022-10-04T19:12:26.493Z,101397.47
2022-10-04T19:15:04.116Z,101416.00
2022-10-04T19:17:39.385Z,101405.25
2022-10-04T19:20:18.748Z,101400.56
2022-10-04T19:22:55.355Z,101394.25
2022-10-04T19:25:35.309Z,101376.16
2022-10-04T19:28:07.945Z,101371.72
2022-10-04T19:30:57.939Z,101365.50
2022-10-04T19:33:37.420Z,101361.06
2022-10-04T19:36:22.950Z,101360.03
2022-10-04T19:39:01.425Z,101361.88
2022-10-04T19:41:42.353Z,101355.50
2022-10-04T19:44:21.433Z,101361.72
2022-10-04T19:46:58.095Z,101352.75
2022-10-04T19:49:38.354Z,101355.38
2022-10-04T19:52:20.231Z,101358.13
2022-10-04T19:54:50.824Z,101359.94
2022-10-04T19:57:24.675Z,101366.16
2022-10-04T19:59:52.678Z,101374.13
2022-10-04T20:02:22.059Z,101376.81
2022-10-04T20:04:51.199Z,101374.19
2022-10-04T20:07:25.815Z,101361.72
2022-10-04T20:09:57.024Z,101361.72
2022-10-04T20:12:37.202Z,101358.16
2022-10-04T20:15:23.902Z,101354.69
2022-10-04T20:17:58.075Z,101354.78
2022-10-04T20:21:06.630Z,101361.16
2022-10-04T20:23:59.079Z,101362.91
2022-10-04T20:26:56.215Z,101359.38
2022-10-04T20:30:05.124Z,101370.97
2022-10-04T20:32:56.784Z,101375.41
2022-10-04T20:36:14.168Z,101362.78
2022-10-04T20:38:50.759Z,101349.34
2022-10-04T20:42:01.352Z,101344.06
2022-10-04T20:44:48.213Z,101336.09
2022-10-04T20:47:41.045Z,101342.38
2022-10-04T20:50:18.670Z,101343.41
2022-10-04T20:52:48.993Z,101337.13
2022-10-04T20:55:22.057Z,101329.97
2022-10-04T20:57:50.080Z,101324.53
2022-10-04T21:00:20.378Z,101323.50
2022-10-04T21:02:48.487Z,101317.25
2022-10-04T21:05:24.892Z,101302.94
2022-10-04T21:08:22.296Z,101302.91
2022-10-04T21:11:18.485Z,101296.03
2022-10-04T21:13:53.580Z,101303.31
2022-10-04T21:16:42.474Z,101308.78
2022-10-04T21:19:29.599Z,101319.53
2022-10-04T21:21:59.718Z,101317.81
2022-10-04T21:24:29.468Z,101321.41
2022-10-04T21:26:58.463Z,101341.59
2022-10-04T21:29:26.421Z,101345.16
2022-10-04T21:31:56.422Z,101348.72
2022-10-04T21:34:51.462Z,101350.44
2022-10-04T21:37:14.006Z,101348.72
2022-10-04T21:39:41.970Z,101348.72
2022-10-04T21:42:10.401Z,101345.16
2022-10-04T21:44:38.465Z,101348.66
2022-10-04T21:47:06.522Z,101346.97
2022-10-04T21:49:34.544Z,101335.34
2022-10-04T21:52:02.616Z,101334.47
2022-10-04T21:54:31.999Z,101341.56
2022-10-04T21:56:59.919Z,101330.78
2022-10-04T21:59:28.373Z,101328.22
2022-10-04T22:01:56.367Z,101329.13
2022-10-04T22:04:24.370Z,101334.47
2022-10-04T22:06:52.347Z,101333.63
2022-10-04T22:09:20.341Z,101319.22
2022-10-04T22:11:49.646Z,101319.25
2022-10-04T22:14:17.617Z,101320.09
2022-10-04T22:16:45.946Z,101319.22
2022-10-04T22:19:14.121Z,101309.41
2022-10-04T22:21:42.085Z,101308.56
2022-10-04T22:24:16.092Z,101309.41
2022-10-04T22:26:44.359Z,101309.47
2022-10-04T22:29:16.305Z,101300.53
2022-10-04T22:31:47.611Z,101294.28
2022-10-04T22:34:17.673Z,101302.25
2022-10-04T22:36:46.104Z,101298.56
2022-10-04T22:39:16.568Z,101302.16
2022-10-04T22:41:46.729Z,101289.59
2022-10-04T22:44:19.241Z,101285.13
2022-10-04T22:46:51.449Z,101271.69
2022-10-04T22:49:22.844Z,101273.50
2022-10-04T22:51:52.847Z,101262.09
2022-10-04T22:54:23.217Z,101276.13
2022-10-04T22:56:52.494Z,101275.16
2022-10-04T22:59:24.143Z,101282.00
2022-10-04T23:01:52.789Z,101270.38
2022-10-04T23:04:23.843Z,101273.09
2022-10-04T23:06:53.665Z,101264.13
2022-10-04T23:09:21.929Z,101275.69
2022-10-04T23:11:50.081Z,101261.44
2022-10-04T23:14:18.029Z,101270.16
2022-10-04T23:16:47.736Z,101273.59
2022-10-04T23:19:18.765Z,101261.94
2022-10-04T23:21:48.320Z,101270.66
2022-10-04T23:24:18.605Z,101264.28
2022-10-04T23:26:49.089Z,101252.56
2022-10-04T23:29:22.493Z,101248.97
2022-10-04T23:31:52.693Z,101243.50
2022-10-04T23:34:25.176Z,101246.13
2022-10-04T23:36:53.485Z,101242.47
2022-10-04T23:39:26.330Z,101238.81
2022-10-04T23:41:56.034Z,101237.81
2022-10-04T23:44:27.878Z,101225.47
2022-10-04T23:46:57.335Z,101236.94
2022-10-04T23:49:25.391Z,101236.00
2022-10-04T23:52:03.161Z,101242.16
2022-10-04T23:54:31.345Z,101234.94
2022-10-04T23:56:59.349Z,101232.19
2022-10-04T23:59:27.577Z,101225.97
